Time Latitude Longitude Accuracy (66% radius in meters) Altitude (meters) Speed (km/hour) Bearing (degrees) Battery (%) GPS flag
16:21:10 60.000465 30.436928 6 45.331548137 11.867012023926 356.25094604492 49 1 delete
16:21:09 60.000378 30.436994 8 45.576874066 7.604190826416 331.26168823242 49 1 delete
16:21:08 60.000286 30.437028 8 46.01729832 10.970149993896 343.39855957031 49 1 delete
16:21:06 60.000081 30.437110 9.2409925460815 46.953009712 12.035753250122 351.50082397461 49 1 delete
16:21:05 59.999977 30.437137 8.9548683166504 47.261899711 11.726759910583 352.69757080078 49 1 delete
16:21:04 59.999874 30.437163 8.5518856048584 47.619763656 11.503969192505 353.03372192383 49 1 delete
16:21:03 59.999777 30.437184 8.3975505828857 47.899109803 10.984724998474 354.09750366211 49 1 delete
16:21:02 59.999680 30.437200 7.9775490760803 48.18179098 10.967053413391 355.9287109375 49 1 delete
16:21:01 59.999586 30.437210 7.5099658966064 48.484865359 11.022866249084 357.34994506836 49 1 delete
16:21:00 59.999494 30.437216 7.2119312286377 48.66296961 10.274289131165 358.09719848633 49 1 delete
16:20:59 59.999409 30.437222 6.9886498451233 48.800619033 9.5934495925903 357.02578735352 49 1 delete
16:20:57 59.999262 30.437247 6.2013339996338 49.156423231 8.0650110244751 352.50531005859 49 1 delete
16:20:55 59.999113 30.437308 6 49.328820638 8.5610113143921 353.30169677734 49 1 delete
16:20:53 59.998959 30.437346 4 49.579353295 8.9648561477661 353.39013671875 49 1 delete
16:20:52 59.998793 30.437357 4 50.055863986 9.6034994125366 353.11050415039 49 1 delete
16:20:51 59.998704 30.437385 4 50.30798175 10.597049713135 353.3752746582 49 1 delete
16:20:50 59.998607 30.437414 4 50.458047276 11.286635398865 353.642578125 49 1 delete
16:20:49 59.998507 30.437448 4 50.579222271 11.605128288269 352.58200073242 49 1 delete
16:20:48 59.998403 30.437475 4 50.680054272 11.627119064331 352.72778320312 49 1 delete
16:20:47 59.998300 30.437497 4 50.810696187 11.514511108398 352.79278564453 49 1 delete
16:20:46 59.998196 30.437528 4 51.042280562 11.993509292603 352.72064208984 49 1 delete
16:20:45 59.998089 30.437561 6 51.285373597 12.107886314392 352.26052856445 49 1 delete
16:20:44 59.997981 30.437597 6 51.55522594 12.076256752014 352.39944458008 49 1 delete
16:20:43 59.997875 30.437630 6 51.790198609 11.922690391541 353.39025878906 49 1 delete
16:20:42 59.997772 30.437650 6 51.987743799 11.120813369751 352.32391357422 49 1 delete
16:20:41 59.997675 30.437677 6 52.298099807 10.526138305664 351.98449707031 49 1 delete
16:20:40 59.997583 30.437708 6 52.680923779 10.367067337036 351.77975463867 49 1 delete
16:20:39 59.997495 30.437744 6 53.075112543 9.8173198699951 352.41098022461 49 1 delete
16:20:37 59.997325 30.437781 6 53.98798399 9.4377422332764 353.47833251953 49 1 delete
16:20:35 59.997168 30.437814 6 55.412826652 8.7604150772095 352.44165039062 49 1 delete
16:20:33 59.997032 30.437828 4 57.582066465 6.1646151542664 353.32131958008 49 1 delete
16:20:30 59.996916 30.437845 6 61.22090051 1.2099720239639 351.74047851562 49 1 delete
16:20:21 59.996895 30.437869 6 62.760770282 1.3235290050507 352.76751708984 49 1 delete
16:20:20 59.996882 30.437872 6 62.919283443 2.2038729190826 353.06774902344 49 1 delete
16:20:16 59.996800 30.437904 6 63.388637271 4.1235380172729 352.4606628418 49 1 delete
16:20:13 59.996709 30.437961 6 64.405561991 6.4752860069275 353.57009887695 49 1 delete
16:20:11 59.996586 30.438022 6 64.745190382 9.2373027801514 355.56622314453 49 1 delete
16:20:10 59.996506 30.438031 6 64.811402987 8.8675508499146 358.34033203125 49 1 delete
16:20:09 59.996428 30.438043 6 64.877208636 9.4397048950195 2.9396359920502 49 1 delete
16:20:07 59.996263 30.438001 4 64.863564301 9.6534624099731 9.7768640518188 49 1 delete
16:20:05 59.996090 30.437932 4 64.806856907 9.8673267364502 17.552143096924 49 1 delete
16:20:04 59.996006 30.437869 4 64.72734913 9.7266616821289 21.692798614502 49 1 delete
16:20:02 59.995844 30.437715 4 64.41519677 10.083079338074 27.894247055054 49 1 delete
16:20:01 59.995764 30.437627 4 64.178855014 10.158131599426 27.672142028809 49 1 delete
16:20:00 59.995682 30.437538 6 63.901493258 10.168286323547 27.284448623657 49 1 delete
16:19:59 59.995599 30.437441 6 63.601866811 10.515807151794 28.216798782349 49 1 delete
16:19:58 59.995513 30.437343 6 63.31945388 10.721259117126 28.328695297241 49 1 delete
16:19:57 59.995423 30.437256 6 63.058504464 10.758860588074 28.278066635132 49 1 delete
16:19:56 59.995338 30.437157 6 62.853204743 10.546611785889 28.784561157227 49 1 delete
16:19:55 59.995254 30.437057 6 62.580004734 10.68848323822 28.519584655762 49 1 delete